Terminal Aerodrome Forecast
Issued by NWS

Home | Current Version | Previous Version | Text Only | Print | Product List | Glossary On
Versions: 1 2 3 4 5 6 7 8 9 10 11 12 13 14 15 16 17 18 19 20 21 22 23 24 25 26 27 28 29 30 31 32 33 34
000
FTUS43 KDMX 200155 AAA
TAFMCW
TAF AMD
KMCW 200155Z 2002/2024 18016KT P6SM SKC
     FM200500 20014KT P6SM VCTS SCT025CB BKN080
     FM200900 25012KT P6SM SCT030 BKN100
     FM201500 30012KT P6SM SCT060=

USA.gov is the U.S. government's official web portal to all federal, state and local government web resources and services.